createdAt,value
2022-09-18T00:01:33.794Z,158881.72
2022-09-18T00:04:03.697Z,158880.38
2022-09-18T00:06:34.585Z,158883.06
2022-09-18T00:09:03.692Z,158881.72
2022-09-18T00:11:37.474Z,158891.06
2022-09-18T00:14:07.134Z,158884.38
2022-09-18T00:16:34.876Z,158901.69
2022-09-18T00:19:02.653Z,158909.72
2022-09-18T00:21:32.054Z,158909.72
2022-09-18T00:24:01.239Z,158919.03
2022-09-18T00:26:29.219Z,158924.38
2022-09-18T00:28:58.519Z,158933.72
2022-09-18T00:31:30.114Z,158939.06
2022-09-18T00:34:03.381Z,158937.72
2022-09-18T00:36:30.795Z,158943.03
2022-09-18T00:38:59.582Z,158956.34
2022-09-18T00:41:33.505Z,158953.72
2022-09-18T00:44:32.153Z,158963.03
2022-09-18T00:47:12.294Z,158965.72
2022-09-18T00:50:17.358Z,158973.72
2022-09-18T00:52:52.595Z,158963.03
2022-09-18T00:55:24.299Z,158968.38
2022-09-18T00:57:55.235Z,158973.72
2022-09-18T01:00:23.323Z,158979.00
2022-09-18T01:02:51.095Z,158980.38
2022-09-18T01:05:49.312Z,158988.38
2022-09-18T01:08:47.785Z,158987.06
2022-09-18T01:11:46.785Z,158995.06
2022-09-18T01:14:39.033Z,159004.38
2022-09-18T01:17:31.241Z,159012.38
2022-09-18T01:20:18.048Z,159005.69
2022-09-18T01:23:04.397Z,159001.72
2022-09-18T01:26:09.503Z,159009.72
2022-09-18T01:28:41.164Z,159013.69
2022-09-18T01:31:39.009Z,159023.06
2022-09-18T01:34:19.704Z,159020.34
2022-09-18T01:36:52.302Z,159027.03
2022-09-18T01:39:31.957Z,159028.34
2022-09-18T01:42:00.438Z,159031.06
2022-09-18T01:44:31.432Z,159028.34
2022-09-18T01:47:04.083Z,159020.34
2022-09-18T01:49:40.377Z,159025.69
2022-09-18T01:52:12.979Z,159021.69
2022-09-18T01:54:46.194Z,159027.03
2022-09-18T01:57:24.509Z,159013.69
2022-09-18T01:59:56.738Z,159005.69
2022-09-18T02:02:33.210Z,159024.38
2022-09-18T02:05:04.195Z,159025.69
2022-09-18T02:07:39.859Z,159027.03
2022-09-18T02:10:08.542Z,159012.38
2022-09-18T02:12:39.408Z,159023.06
2022-09-18T02:15:10.899Z,159015.06
2022-09-18T02:17:46.843Z,159019.03
2022-09-18T02:20:21.885Z,159011.03
2022-09-18T02:22:52.063Z,159005.69
2022-09-18T02:25:25.720Z,158996.38
2022-09-18T02:27:55.170Z,158995.06
2022-09-18T02:30:23.082Z,158989.69
2022-09-18T02:32:55.071Z,159003.03
2022-09-18T02:35:27.722Z,159012.38
2022-09-18T02:38:01.144Z,159024.38
2022-09-18T02:41:08.242Z,159013.69
2022-09-18T02:43:56.007Z,159015.06
2022-09-18T02:46:46.951Z,159012.38
2022-09-18T02:49:38.433Z,159012.38
2022-09-18T02:52:50.291Z,159015.06
2022-09-18T02:55:19.536Z,159009.72
2022-09-18T02:57:52.456Z,159005.69
2022-09-18T03:00:20.980Z,159000.34
2022-09-18T03:02:52.508Z,159005.69
2022-09-18T03:05:31.610Z,158984.34
2022-09-18T03:08:01.089Z,158995.06
2022-09-18T03:10:29.955Z,158996.38
2022-09-18T03:12:57.680Z,158987.06
2022-09-18T03:15:25.429Z,158989.69
2022-09-18T03:17:52.810Z,158987.06
2022-09-18T03:20:20.705Z,158985.69
2022-09-18T03:22:49.857Z,158980.38
2022-09-18T03:25:18.128Z,158979.00
2022-09-18T03:27:45.428Z,158979.00
2022-09-18T03:30:18.552Z,158967.06
2022-09-18T03:32:46.248Z,158948.38
2022-09-18T03:35:13.689Z,158959.06
2022-09-18T03:37:42.063Z,158957.69
2022-09-18T03:40:12.391Z,158955.03
2022-09-18T03:42:43.602Z,158965.72
2022-09-18T03:45:12.321Z,158967.06
2022-09-18T03:47:39.889Z,158957.69
2022-09-18T03:50:09.071Z,158971.03
2022-09-18T03:52:38.819Z,158976.38
2022-09-18T03:55:27.993Z,158981.72
2022-09-18T03:58:14.494Z,158975.03
2022-09-18T04:01:01.923Z,159001.72
2022-09-18T04:03:39.204Z,159008.38
2022-09-18T04:06:25.722Z,159040.38
2022-09-18T04:09:26.011Z,159057.72
2022-09-18T04:11:55.051Z,159060.38
2022-09-18T04:14:27.956Z,159076.38
2022-09-18T04:16:58.119Z,159061.69
2022-09-18T04:19:25.579Z,159091.03
2022-09-18T04:21:53.099Z,159104.38
2022-09-18T04:24:22.590Z,159097.69
2022-09-18T04:26:50.244Z,159089.72
2022-09-18T04:29:20.659Z,159117.72
2022-09-18T04:35:17.607Z,159111.03
2022-09-18T04:37:45.730Z,159104.38
2022-09-18T04:40:14.039Z,159111.03
2022-09-18T04:42:42.088Z,159128.41
2022-09-18T04:45:11.048Z,159117.72
2022-09-18T04:47:41.151Z,159127.03
2022-09-18T04:50:11.256Z,159133.72
2022-09-18T04:52:59.064Z,159127.03
2022-09-18T04:55:28.310Z,159128.41
2022-09-18T04:57:56.374Z,159135.09
2022-09-18T05:00:24.792Z,159127.03
2022-09-18T05:02:52.822Z,159132.38
2022-09-18T05:05:24.978Z,159136.41
2022-09-18T05:07:53.005Z,159143.09
2022-09-18T05:10:22.532Z,159140.38
2022-09-18T05:12:52.158Z,159149.75
2022-09-18T05:15:21.645Z,159173.75
2022-09-18T05:18:00.084Z,159155.06
2022-09-18T05:20:28.719Z,159144.41
2022-09-18T05:23:03.309Z,159145.72
2022-09-18T05:25:31.618Z,159157.75
2022-09-18T05:28:01.081Z,159160.41
2022-09-18T05:30:34.129Z,159165.75
2022-09-18T05:33:04.736Z,159156.44
2022-09-18T05:35:34.373Z,159169.78
2022-09-18T05:38:02.671Z,159171.09
2022-09-18T05:40:37.706Z,159171.09
2022-09-18T05:43:07.466Z,159191.13
2022-09-18T05:45:37.261Z,159187.09
2022-09-18T05:48:15.371Z,159184.44
2022-09-18T05:50:43.524Z,159199.13
2022-09-18T05:53:15.809Z,159191.13
2022-09-18T05:56:06.432Z,159195.09
2022-09-18T05:58:33.832Z,159213.78
2022-09-18T06:01:04.767Z,159211.09
2022-09-18T06:03:59.758Z,159213.78
2022-09-18T06:06:38.523Z,159217.75
2022-09-18T06:09:06.798Z,159205.78
2022-09-18T06:11:34.171Z,159216.44
2022-09-18T06:14:01.812Z,159213.78
2022-09-18T06:16:29.645Z,159205.78
2022-09-18T06:19:00.644Z,159217.75
2022-09-18T06:21:28.179Z,159229.78
2022-09-18T06:23:57.446Z,159219.13
2022-09-18T06:26:33.461Z,159217.75
2022-09-18T06:29:01.447Z,159225.75
2022-09-18T06:31:34.191Z,159233.81
2022-09-18T06:34:11.262Z,159253.78
2022-09-18T06:36:43.002Z,159260.44
2022-09-18T06:39:23.551Z,159256.47
2022-09-18T06:41:55.571Z,159267.13
2022-09-18T06:44:45.998Z,159248.47
2022-09-18T06:47:15.998Z,159264.47
2022-09-18T06:49:46.613Z,159260.44
2022-09-18T06:52:14.103Z,159259.13
2022-09-18T06:54:41.516Z,159257.81
2022-09-18T06:57:09.234Z,159269.81
2022-09-18T06:59:38.491Z,159268.50
2022-09-18T07:02:16.050Z,159283.22
2022-09-18T07:04:55.644Z,159283.22
2022-09-18T07:07:23.223Z,159280.53
2022-09-18T07:09:52.161Z,159273.84
2022-09-18T07:12:25.201Z,159269.81
2022-09-18T07:14:54.668Z,159259.13
2022-09-18T07:17:26.236Z,159269.81
2022-09-18T07:19:56.351Z,159267.13
2022-09-18T07:22:31.980Z,159267.13
2022-09-18T07:24:59.878Z,159255.16
2022-09-18T07:27:29.163Z,159269.81
2022-09-18T07:29:57.303Z,159263.16
2022-09-18T07:32:26.478Z,159273.84
2022-09-18T07:34:55.156Z,159272.53
2022-09-18T07:37:27.538Z,159253.78
2022-09-18T07:40:12.463Z,159253.78
2022-09-18T07:43:07.756Z,159223.09
2022-09-18T07:45:37.791Z,159235.13
2022-09-18T07:48:06.846Z,159240.47
2022-09-18T07:50:40.099Z,159232.44
2022-09-18T07:53:09.313Z,159243.13
2022-09-18T07:55:39.258Z,159253.78
2022-09-18T07:58:07.661Z,159253.78
2022-09-18T08:00:53.994Z,159247.16
2022-09-18T08:03:25.768Z,159261.81
2022-09-18T08:06:20.570Z,159267.13
2022-09-18T08:09:11.335Z,159261.81
2022-09-18T08:11:59.256Z,159268.50
2022-09-18T08:14:51.262Z,159269.81
2022-09-18T08:17:22.445Z,159281.84
2022-09-18T08:20:10.002Z,159277.88
2022-09-18T08:23:05.802Z,159277.88
2022-09-18T08:25:37.711Z,159305.91
2022-09-18T08:28:06.781Z,159324.59
2022-09-18T08:30:45.392Z,159333.94
2022-09-18T08:33:14.590Z,159353.94
2022-09-18T08:35:42.159Z,159352.56
2022-09-18T08:38:21.947Z,159368.63
2022-09-18T08:41:30.124Z,159404.66
2022-09-18T08:44:01.484Z,159443.34
2022-09-18T08:46:45.461Z,159480.75
2022-09-18T08:49:16.258Z,159530.16
2022-09-18T08:51:49.999Z,159574.22
2022-09-18T08:54:39.692Z,159587.56
2022-09-18T08:57:48.806Z,159603.59
2022-09-18T09:00:47.029Z,159631.63
2022-09-18T09:03:49.743Z,159627.66
2022-09-18T09:06:34.096Z,159604.91
2022-09-18T09:09:02.222Z,159587.56
2022-09-18T09:11:57.735Z,159588.91
2022-09-18T09:14:57.925Z,159599.63
2022-09-18T09:17:47.028Z,159582.22
2022-09-18T09:20:35.911Z,159586.25
2022-09-18T09:23:12.320Z,159631.63
2022-09-18T09:26:06.990Z,159690.44
2022-09-18T09:29:14.622Z,159755.94
2022-09-18T09:31:56.551Z,159849.47
2022-09-18T09:34:51.704Z,159892.22
2022-09-18T09:37:41.103Z,159989.81
2022-09-18T09:40:25.911Z,160051.38
2022-09-18T09:42:57.689Z,160086.09
2022-09-18T09:45:31.624Z,160064.69
2022-09-18T09:48:04.038Z,160015.16
2022-09-18T09:50:36.332Z,160024.56
2022-09-18T09:53:08.122Z,160015.16
2022-09-18T09:55:49.449Z,160037.94
2022-09-18T09:58:39.266Z,160044.63
2022-09-18T10:01:13.526Z,160084.75
2022-09-18T10:03:55.270Z,160120.84
2022-09-18T10:06:49.458Z,160177.03
2022-09-18T10:09:49.024Z,160250.63
2022-09-18T10:12:31.431Z,160265.34
2022-09-18T10:15:23.778Z,160306.81
2022-09-18T10:17:53.178Z,160297.41
2022-09-18T10:20:27.636Z,160316.16
2022-09-18T10:23:02.316Z,160340.22
2022-09-18T10:25:39.962Z,160381.75
2022-09-18T10:28:13.189Z,160336.25
2022-09-18T10:31:03.926Z,160349.63
2022-09-18T10:33:38.279Z,160329.53
2022-09-18T10:36:16.341Z,160292.09
2022-09-18T10:38:44.175Z,160282.69
2022-09-18T10:41:45.128Z,160257.31
2022-09-18T10:44:37.807Z,160261.28
2022-09-18T10:47:32.797Z,160259.97
2022-09-18T10:50:11.489Z,160243.94
2022-09-18T10:52:46.739Z,160174.38
2022-09-18T10:55:27.317Z,160148.94
2022-09-18T10:57:59.726Z,160143.63
2022-09-18T11:00:34.123Z,160148.94
2022-09-18T11:03:05.498Z,160146.28
2022-09-18T11:05:38.021Z,160120.84
2022-09-18T11:08:15.480Z,160116.88
2022-09-18T11:10:51.031Z,160147.63
2022-09-18T11:13:24.271Z,160142.25
2022-09-18T11:15:57.794Z,160108.84
2022-09-18T11:18:26.336Z,160082.09
2022-09-18T11:20:56.718Z,160072.75
2022-09-18T11:23:26.734Z,160072.75
2022-09-18T11:26:21.435Z,160059.38
2022-09-18T11:29:02.624Z,160086.09
2022-09-18T11:31:48.288Z,160098.13
2022-09-18T11:34:30.549Z,160116.88
2022-09-18T11:37:06.043Z,160171.72
2022-09-18T11:39:51.969Z,160140.91
2022-09-18T11:42:21.335Z,160177.03
2022-09-18T11:44:52.409Z,160231.88
2022-09-18T11:47:46.779Z,160237.25
2022-09-18T11:50:14.395Z,160257.31
2022-09-18T11:52:45.615Z,160266.66
2022-09-18T11:55:44.466Z,160292.09
2022-09-18T11:58:29.177Z,160316.16
2022-09-18T12:01:23.077Z,160360.31
2022-09-18T12:04:32.978Z,160400.50
2022-09-18T12:07:36.932Z,160367.00
2022-09-18T12:10:07.329Z,160328.22
2022-09-18T12:12:39.972Z,160353.59
2022-09-18T12:15:34.396Z,160300.13
2022-09-18T12:18:25.784Z,160253.28
2022-09-18T12:21:02.321Z,160239.91
2022-09-18T12:23:32.348Z,160249.28
2022-09-18T12:26:46.907Z,160289.41
2022-09-18T12:29:39.263Z,160298.78
2022-09-18T12:32:21.816Z,160288.06
2022-09-18T12:35:27.206Z,160293.44
2022-09-18T12:38:19.569Z,160272.03
2022-09-18T12:40:50.505Z,160221.19
2022-09-18T12:43:30.725Z,160254.59
2022-09-18T12:46:10.087Z,160249.28
2022-09-18T12:48:51.377Z,160253.28
2022-09-18T12:51:19.006Z,160217.16
2022-09-18T12:53:56.856Z,160206.50
2022-09-18T12:56:49.493Z,160199.81
2022-09-18T12:59:32.807Z,160150.31
2022-09-18T13:02:14.102Z,160175.69
2022-09-18T13:04:46.866Z,160178.41
2022-09-18T13:07:35.584Z,160197.09
2022-09-18T13:10:26.326Z,160191.72
2022-09-18T13:13:00.482Z,160194.44
2022-09-18T13:15:28.002Z,160221.19
2022-09-18T13:18:33.318Z,160225.19
2022-09-18T13:21:06.508Z,160202.47
2022-09-18T13:23:39.553Z,160171.72
2022-09-18T13:26:09.951Z,160173.03
2022-09-18T13:28:41.029Z,160181.06
2022-09-18T13:31:30.751Z,160163.66
2022-09-18T13:34:01.281Z,160163.66
2022-09-18T13:36:36.594Z,160143.63
2022-09-18T13:39:08.018Z,160103.50
2022-09-18T13:42:02.096Z,160033.91
2022-09-18T13:44:35.409Z,160027.22
2022-09-18T13:47:15.810Z,160023.25
2022-09-18T13:49:48.071Z,159963.06
2022-09-18T13:52:35.810Z,159896.25
2022-09-18T13:55:16.466Z,159873.50
2022-09-18T13:57:44.720Z,159862.81
2022-09-18T14:00:25.339Z,159849.47
2022-09-18T14:03:14.453Z,159852.13
2022-09-18T14:05:43.131Z,159838.75
2022-09-18T14:08:24.584Z,159833.44
2022-09-18T14:11:14.669Z,159854.81
2022-09-18T14:14:05.842Z,159860.13
2022-09-18T14:16:38.984Z,159829.41
2022-09-18T14:19:20.580Z,159809.34
2022-09-18T14:21:48.556Z,159806.69
2022-09-18T14:24:25.517Z,159806.69
2022-09-18T14:26:59.262Z,159818.75
2022-09-18T14:29:29.778Z,159789.31
2022-09-18T14:31:59.574Z,159738.53
2022-09-18T14:34:34.832Z,159725.19
2022-09-18T14:37:21.019Z,159699.81
2022-09-18T14:39:48.874Z,159699.81
2022-09-18T14:42:35.606Z,159701.16
2022-09-18T14:45:08.829Z,159687.78
2022-09-18T14:47:36.879Z,159674.38
2022-09-18T14:50:37.967Z,159678.41
2022-09-18T14:53:26.089Z,159670.41
2022-09-18T14:56:06.185Z,159662.34
2022-09-18T14:58:37.153Z,159658.34
2022-09-18T15:01:07.417Z,159654.34
2022-09-18T15:03:42.702Z,159659.69
2022-09-18T15:06:18.536Z,159650.34
2022-09-18T15:08:48.248Z,159659.69
2022-09-18T15:11:17.243Z,159659.69
2022-09-18T15:13:46.529Z,159665.03
2022-09-18T15:16:25.518Z,159650.34
2022-09-18T15:18:53.435Z,159653.00
2022-09-18T15:21:41.891Z,159647.66
2022-09-18T15:24:15.652Z,159661.00
2022-09-18T15:26:45.572Z,159659.69
2022-09-18T15:29:39.044Z,159645.00
2022-09-18T15:32:07.199Z,159645.00
2022-09-18T15:34:41.468Z,159632.97
2022-09-18T15:37:17.792Z,159614.28
2022-09-18T15:39:47.676Z,159638.31
2022-09-18T15:42:34.099Z,159619.59
2022-09-18T15:45:01.762Z,159645.00
2022-09-18T15:47:31.958Z,159638.31
2022-09-18T15:50:00.421Z,159627.66
2022-09-18T15:53:02.642Z,159638.31
2022-09-18T15:55:46.511Z,159630.31
2022-09-18T15:58:35.766Z,159603.59
2022-09-18T16:01:06.169Z,159624.94
2022-09-18T16:03:34.579Z,159619.59
2022-09-18T16:06:05.251Z,159620.97
2022-09-18T16:08:36.098Z,159619.59
2022-09-18T16:11:05.239Z,159630.31
2022-09-18T16:13:37.891Z,159590.22
2022-09-18T16:16:08.890Z,159620.97
2022-09-18T16:18:52.595Z,159624.94
2022-09-18T16:21:20.351Z,159630.31
2022-09-18T16:23:50.470Z,159632.97
2022-09-18T16:26:33.634Z,159645.00
2022-09-18T16:29:01.614Z,159635.66
2022-09-18T16:31:35.129Z,159623.63
2022-09-18T16:34:05.892Z,159618.28
2022-09-18T16:36:35.465Z,159604.91
2022-09-18T16:39:08.690Z,159610.25
2022-09-18T16:41:37.138Z,159612.91
2022-09-18T16:44:05.633Z,159610.25
2022-09-18T16:46:40.778Z,159600.94
2022-09-18T16:49:12.995Z,159600.94
2022-09-18T16:51:40.526Z,159603.59
2022-09-18T16:54:08.122Z,159608.94
2022-09-18T16:56:39.385Z,159616.94
2022-09-18T16:59:07.243Z,159620.97
2022-09-18T17:01:54.309Z,159611.59
2022-09-18T17:04:25.076Z,159608.94
2022-09-18T17:06:54.720Z,159600.94
2022-09-18T17:09:24.036Z,159603.59
2022-09-18T17:11:52.664Z,159610.25
2022-09-18T17:14:20.518Z,159579.56
2022-09-18T17:16:48.242Z,159595.59
2022-09-18T17:19:16.331Z,159586.25
2022-09-18T17:21:44.296Z,159590.22
2022-09-18T17:24:12.133Z,159592.94
2022-09-18T17:26:41.756Z,159591.56
2022-09-18T17:29:11.718Z,159595.59
2022-09-18T17:31:39.934Z,159592.94
2022-09-18T17:34:07.848Z,159584.88
2022-09-18T17:36:40.320Z,159598.22
2022-09-18T17:39:08.090Z,159596.91
2022-09-18T17:41:35.777Z,159582.22
2022-09-18T17:44:03.432Z,159584.88
2022-09-18T17:46:31.232Z,159580.91
2022-09-18T17:48:59.863Z,159575.53
2022-09-18T17:51:28.876Z,159566.22
2022-09-18T17:53:59.886Z,159554.19
2022-09-18T17:56:30.200Z,159538.16
2022-09-18T17:59:02.091Z,159522.16
2022-09-18T18:01:30.440Z,159524.81
2022-09-18T18:03:58.417Z,159535.47
2022-09-18T18:06:26.742Z,159506.09
2022-09-18T18:08:54.669Z,159462.06
2022-09-18T18:11:23.569Z,159424.69
2022-09-18T18:13:52.820Z,159385.97
2022-09-18T18:16:23.607Z,159347.28
2022-09-18T18:18:55.376Z,159308.53
2022-09-18T18:21:23.602Z,159299.22
2022-09-18T18:23:57.752Z,159301.88
2022-09-18T18:26:28.178Z,159281.84
2022-09-18T18:28:55.797Z,159272.53
2022-09-18T18:31:25.740Z,159264.47
2022-09-18T18:33:55.298Z,159251.13
2022-09-18T18:36:27.997Z,159245.78
2022-09-18T18:38:58.847Z,159259.13
2022-09-18T18:41:29.267Z,159260.44
2022-09-18T18:43:59.229Z,159253.78
2022-09-18T18:46:28.692Z,159247.16
2022-09-18T18:49:00.603Z,159251.13
2022-09-18T18:51:29.819Z,159245.78
2022-09-18T18:53:57.766Z,159232.44
2022-09-18T18:56:25.788Z,159248.47
2022-09-18T18:58:57.782Z,159272.53
2022-09-18T19:01:25.965Z,159256.47
2022-09-18T19:03:58.734Z,159264.47
2022-09-18T19:06:27.166Z,159251.13
2022-09-18T19:09:00.978Z,159259.13
2022-09-18T19:11:30.477Z,159232.44
2022-09-18T19:14:00.083Z,159223.09
2022-09-18T19:16:29.100Z,159240.47
2022-09-18T19:19:01.276Z,159231.09
2022-09-18T19:21:29.583Z,159215.09
2022-09-18T19:24:02.486Z,159229.78
2022-09-18T19:26:30.721Z,159224.44
2022-09-18T19:29:00.420Z,159227.13
2022-09-18T19:31:29.572Z,159213.78
2022-09-18T19:33:58.180Z,159235.13
2022-09-18T19:36:28.705Z,159232.44
2022-09-18T19:39:06.910Z,159200.44
2022-09-18T19:41:53.433Z,159201.75
2022-09-18T19:44:40.728Z,159195.09
2022-09-18T19:47:19.945Z,159187.09
2022-09-18T19:49:47.681Z,159187.09
2022-09-18T19:52:21.074Z,159165.75
2022-09-18T19:54:48.976Z,159171.09
2022-09-18T19:57:17.607Z,159160.41
2022-09-18T19:59:45.067Z,159157.75
2022-09-18T20:02:14.556Z,159144.41
2022-09-18T20:04:42.304Z,159141.75
2022-09-18T20:07:10.260Z,159139.06
2022-09-18T20:09:37.721Z,159139.06
2022-09-18T20:12:05.607Z,159149.75
2022-09-18T20:14:33.288Z,159132.38
2022-09-18T20:17:00.761Z,159140.38
2022-09-18T20:19:28.427Z,159136.41
2022-09-18T20:21:56.342Z,159144.41
2022-09-18T20:24:23.898Z,159155.06
2022-09-18T20:26:51.884Z,159145.72
2022-09-18T20:29:19.396Z,159151.06
2022-09-18T20:31:47.237Z,159152.41
2022-09-18T20:34:15.126Z,159137.72
2022-09-18T20:36:42.786Z,159131.06
2022-09-18T20:39:10.360Z,159120.41
2022-09-18T20:41:39.376Z,159121.75
2022-09-18T20:44:06.794Z,159105.69
2022-09-18T20:46:37.229Z,159123.06
2022-09-18T20:49:08.299Z,159120.41
2022-09-18T20:51:36.399Z,159123.06
2022-09-18T20:54:07.802Z,159108.41
2022-09-18T20:56:42.123Z,159108.41
2022-09-18T20:59:14.583Z,159097.69
2022-09-18T21:01:43.746Z,159080.38
2022-09-18T21:04:20.136Z,159087.06
2022-09-18T21:06:56.602Z,159079.06
2022-09-18T21:09:26.565Z,159088.38
2022-09-18T21:11:55.102Z,159080.38
2022-09-18T21:14:24.379Z,159083.03
2022-09-18T21:16:51.840Z,159076.38
2022-09-18T21:19:20.260Z,159079.06
2022-09-18T21:21:48.741Z,159069.69
2022-09-18T21:24:17.609Z,159069.69
2022-09-18T21:26:47.994Z,159064.41
2022-09-18T21:29:20.800Z,159087.06
2022-09-18T21:31:50.730Z,159077.69
2022-09-18T21:34:23.619Z,159075.03
2022-09-18T21:36:57.861Z,159092.41
2022-09-18T21:39:28.348Z,159081.72
2022-09-18T21:41:57.593Z,159085.75
2022-09-18T21:44:30.087Z,159085.75
2022-09-18T21:47:00.270Z,159097.69
2022-09-18T21:49:29.208Z,159097.69
2022-09-18T21:51:59.704Z,159101.72
2022-09-18T21:54:28.195Z,159095.06
2022-09-18T21:56:56.709Z,159095.06
2022-09-18T21:59:30.465Z,159105.69
2022-09-18T22:01:59.066Z,159096.38
2022-09-18T22:04:32.586Z,159099.03
2022-09-18T22:07:02.023Z,159101.72
2022-09-18T22:09:36.720Z,159121.75
2022-09-18T22:12:06.272Z,159121.75
2022-09-18T22:14:35.437Z,159123.06
2022-09-18T22:17:06.519Z,159119.03
2022-09-18T22:19:38.073Z,159108.41
2022-09-18T22:22:08.169Z,159108.41
2022-09-18T22:24:35.784Z,159129.75
2022-09-18T22:27:10.433Z,159131.06
2022-09-18T22:29:39.677Z,159129.75
2022-09-18T22:32:07.630Z,159115.06
2022-09-18T22:34:35.172Z,159101.72
2022-09-18T22:37:03.133Z,159103.06
2022-09-18T22:39:31.064Z,159117.72
2022-09-18T22:41:58.847Z,159113.75
2022-09-18T22:44:26.787Z,159115.06
2022-09-18T22:46:54.227Z,159108.41
2022-09-18T22:49:22.985Z,159107.06
2022-09-18T22:51:51.552Z,159113.75
2022-09-18T22:54:26.586Z,159101.72
2022-09-18T22:56:55.287Z,159101.72
2022-09-18T22:59:24.879Z,159093.72
2022-09-18T23:02:01.585Z,159093.72
2022-09-18T23:04:31.219Z,159079.06
2022-09-18T23:06:59.481Z,159081.72
2022-09-18T23:09:27.636Z,159053.69
2022-09-18T23:11:55.836Z,159073.72
2022-09-18T23:14:27.808Z,159060.38
2022-09-18T23:16:56.325Z,159075.03
2022-09-18T23:19:34.072Z,159079.06
2022-09-18T23:22:01.804Z,159072.41
2022-09-18T23:24:29.666Z,159065.72
2022-09-18T23:26:58.179Z,159073.72
2022-09-18T23:29:27.518Z,159075.03
2022-09-18T23:31:57.678Z,159076.38
2022-09-18T23:34:29.370Z,159063.03
2022-09-18T23:36:58.357Z,159067.03
2022-09-18T23:39:32.573Z,159061.69
2022-09-18T23:42:02.284Z,159083.03
2022-09-18T23:44:31.359Z,159084.38
2022-09-18T23:47:00.261Z,159077.69
2022-09-18T23:49:29.261Z,159083.03
2022-09-18T23:51:57.160Z,159079.06
2022-09-18T23:54:26.799Z,159085.75
2022-09-18T23:56:54.989Z,159096.38
2022-09-18T23:59:23.841Z,159089.72
